QXE302 KLAS-KLAX
Flight info
| Callsign | QXE302 |
|---|---|
| Flight time | 0h 45m |
| Altitude | 22000 |
| Route | RADYR2 BLAQQ SHTNR ANJLL4 |
| Aircraft | DH8D/M-SDE2E3FGRY/H |
Departure
| Time | 2026-05-05 22:37 |
|---|---|
| Airport | Harry Reid International Airport (KLAS) |
Arrival
| Time | 2026-05-05 23:23 |
|---|---|
| Airport | Los Angeles International Airport (KLAX) |
| Time | Latitude | Longitude | Altitude | Speed | Heading |
|---|---|---|---|---|---|
| 2026-05-05 22:37 | 36.06799 | -115.25965 | 4229 ft | 201 kts | 213° |
| 2026-05-05 22:37 | 36.05524 | -115.26633 | 5001 ft | 203 kts | 202° |
| 2026-05-05 22:38 | 36.04196 | -115.27236 | 5690 ft | 207 kts | 201° |
| 2026-05-05 22:38 | 36.02851 | -115.27842 | 6410 ft | 209 kts | 201° |
| 2026-05-05 22:38 | 36.01488 | -115.28456 | 7092 ft | 211 kts | 202° |
| 2026-05-05 22:38 | 36.00106 | -115.29082 | 7709 ft | 215 kts | 201° |
| 2026-05-05 22:39 | 35.98691 | -115.29628 | 8359 ft | 216 kts | 195° |
| 2026-05-05 22:39 | 35.97219 | -115.29996 | 8994 ft | 217 kts | 192° |
| 2026-05-05 22:39 | 35.95728 | -115.30351 | 9606 ft | 219 kts | 192° |
| 2026-05-05 22:39 | 35.94221 | -115.30713 | 10163 ft | 224 kts | 192° |
| 2026-05-05 22:40 | 35.92680 | -115.31086 | 10735 ft | 230 kts | 192° |
| 2026-05-05 22:40 | 35.91100 | -115.31469 | 11356 ft | 233 kts | 192° |
| 2026-05-05 22:40 | 35.89505 | -115.31857 | 11998 ft | 238 kts | 192° |
| 2026-05-05 22:40 | 35.87871 | -115.32256 | 12648 ft | 241 kts | 191° |
| 2026-05-05 22:41 | 35.86222 | -115.32658 | 13333 ft | 244 kts | 191° |
| 2026-05-05 22:41 | 35.84555 | -115.33065 | 14088 ft | 245 kts | 191° |
| 2026-05-05 22:41 | 35.82863 | -115.33479 | 14694 ft | 250 kts | 191° |
| 2026-05-05 22:41 | 35.81169 | -115.33893 | 15443 ft | 251 kts | 191° |
| 2026-05-05 22:42 | 35.79448 | -115.34314 | 16115 ft | 255 kts | 190° |
| 2026-05-05 22:42 | 35.77709 | -115.34740 | 16825 ft | 257 kts | 190° |
| 2026-05-05 22:42 | 35.75950 | -115.35170 | 17521 ft | 260 kts | 190° |
| 2026-05-05 22:42 | 35.74168 | -115.35605 | 18232 ft | 263 kts | 189° |
| 2026-05-05 22:43 | 35.72369 | -115.36045 | 18913 ft | 266 kts | 189° |
| 2026-05-05 22:43 | 35.70546 | -115.36491 | 19574 ft | 270 kts | 189° |
| 2026-05-05 22:43 | 35.68697 | -115.36941 | 20231 ft | 274 kts | 189° |
| 2026-05-05 22:43 | 35.66836 | -115.37396 | 20898 ft | 276 kts | 189° |
| 2026-05-05 22:44 | 35.64984 | -115.37849 | 21502 ft | 278 kts | 189° |
| 2026-05-05 22:44 | 35.63064 | -115.38316 | 21890 ft | 291 kts | 189° |
| 2026-05-05 22:44 | 35.61024 | -115.38768 | 21995 ft | 311 kts | 185° |
| 2026-05-05 22:44 | 35.58790 | -115.38777 | 22037 ft | 331 kts | 174° |
| 2026-05-05 22:45 | 35.56420 | -115.38589 | 22030 ft | 348 kts | 174° |
| 2026-05-05 22:45 | 35.54000 | -115.38393 | 22013 ft | 347 kts | 174° |
| 2026-05-05 22:45 | 35.51601 | -115.38198 | 22009 ft | 344 kts | 174° |
| 2026-05-05 22:45 | 35.49222 | -115.38012 | 22011 ft | 342 kts | 174° |
| 2026-05-05 22:46 | 35.46858 | -115.37830 | 22010 ft | 340 kts | 174° |
| 2026-05-05 22:46 | 35.44502 | -115.37819 | 21991 ft | 340 kts | 187° |
| 2026-05-05 22:46 | 35.42288 | -115.38796 | 22045 ft | 339 kts | 206° |
| 2026-05-05 22:46 | 35.40191 | -115.40120 | 22035 ft | 339 kts | 207° |
| 2026-05-05 22:47 | 35.38104 | -115.41457 | 22025 ft | 338 kts | 207° |
| 2026-05-05 22:47 | 35.36020 | -115.42795 | 22021 ft | 338 kts | 207° |
| 2026-05-05 22:47 | 35.33924 | -115.44138 | 21949 ft | 340 kts | 207° |
| 2026-05-05 22:47 | 35.31828 | -115.45479 | 21927 ft | 339 kts | 207° |
| 2026-05-05 22:48 | 35.29743 | -115.46813 | 21925 ft | 339 kts | 207° |
| 2026-05-05 22:48 | 35.27658 | -115.48143 | 21931 ft | 338 kts | 207° |
| 2026-05-05 22:48 | 35.25576 | -115.49472 | 21935 ft | 337 kts | 207° |
| 2026-05-05 22:48 | 35.23499 | -115.50797 | 21934 ft | 337 kts | 207° |
| 2026-05-05 22:49 | 35.21424 | -115.52119 | 21933 ft | 336 kts | 207° |
| 2026-05-05 22:49 | 35.19350 | -115.53439 | 21933 ft | 336 kts | 207° |
| 2026-05-05 22:49 | 35.17276 | -115.54758 | 21928 ft | 336 kts | 207° |
| 2026-05-05 22:49 | 35.15207 | -115.56073 | 21924 ft | 336 kts | 207° |
| 2026-05-05 22:50 | 35.13144 | -115.57407 | 21920 ft | 335 kts | 210° |
| 2026-05-05 22:50 | 35.11335 | -115.59181 | 21936 ft | 334 kts | 226° |
| 2026-05-05 22:50 | 35.09728 | -115.61236 | 21926 ft | 336 kts | 227° |
| 2026-05-05 22:50 | 35.08121 | -115.63314 | 21917 ft | 338 kts | 227° |
| 2026-05-05 22:51 | 35.06503 | -115.65405 | 21917 ft | 340 kts | 226° |
| 2026-05-05 22:51 | 35.04869 | -115.67509 | 21912 ft | 341 kts | 227° |
| 2026-05-05 22:51 | 35.03234 | -115.69609 | 21911 ft | 342 kts | 226° |
| 2026-05-05 22:51 | 35.01590 | -115.71716 | 21911 ft | 343 kts | 226° |
| 2026-05-05 22:52 | 34.99941 | -115.73825 | 21907 ft | 344 kts | 226° |
| 2026-05-05 22:52 | 34.98289 | -115.75936 | 21903 ft | 345 kts | 226° |
| 2026-05-05 22:52 | 34.96632 | -115.78051 | 21910 ft | 346 kts | 227° |
| 2026-05-05 22:52 | 34.94971 | -115.80169 | 21918 ft | 346 kts | 226° |
| 2026-05-05 22:53 | 34.93310 | -115.82285 | 21921 ft | 346 kts | 226° |
| 2026-05-05 22:53 | 34.91644 | -115.84405 | 21916 ft | 347 kts | 226° |
| 2026-05-05 22:53 | 34.89974 | -115.86529 | 21912 ft | 347 kts | 226° |
| 2026-05-05 22:53 | 34.88301 | -115.88653 | 21915 ft | 347 kts | 227° |
| 2026-05-05 22:54 | 34.86630 | -115.90776 | 21905 ft | 347 kts | 226° |
| 2026-05-05 22:54 | 34.84959 | -115.92898 | 21899 ft | 348 kts | 226° |
| 2026-05-05 22:54 | 34.83284 | -115.95021 | 21904 ft | 348 kts | 227° |
| 2026-05-05 22:54 | 34.81611 | -115.97141 | 21911 ft | 348 kts | 226° |
| 2026-05-05 22:55 | 34.79934 | -115.99264 | 21912 ft | 348 kts | 227° |
| 2026-05-05 22:55 | 34.78260 | -116.01383 | 21910 ft | 348 kts | 227° |
| 2026-05-05 22:55 | 34.76584 | -116.03504 | 21910 ft | 348 kts | 227° |
| 2026-05-05 22:55 | 34.74915 | -116.05632 | 21912 ft | 348 kts | 227° |
| 2026-05-05 22:56 | 34.73246 | -116.07762 | 21910 ft | 348 kts | 227° |
| 2026-05-05 22:56 | 34.71579 | -116.09887 | 21908 ft | 348 kts | 227° |
| 2026-05-05 22:56 | 34.69911 | -116.12012 | 21914 ft | 348 kts | 227° |
| 2026-05-05 22:56 | 34.68243 | -116.14135 | 21925 ft | 348 kts | 227° |
| 2026-05-05 22:57 | 34.66577 | -116.16254 | 21928 ft | 348 kts | 227° |
| 2026-05-05 22:57 | 34.64908 | -116.18375 | 21931 ft | 348 kts | 227° |
| 2026-05-05 22:57 | 34.63238 | -116.20496 | 21936 ft | 348 kts | 227° |
| 2026-05-05 22:57 | 34.61569 | -116.22615 | 21938 ft | 348 kts | 227° |
| 2026-05-05 22:58 | 34.59900 | -116.24731 | 21950 ft | 347 kts | 227° |
| 2026-05-05 22:58 | 34.58229 | -116.26848 | 21941 ft | 348 kts | 227° |
| 2026-05-05 22:58 | 34.56560 | -116.28964 | 21944 ft | 348 kts | 227° |
| 2026-05-05 22:58 | 34.54889 | -116.31079 | 21954 ft | 348 kts | 227° |
| 2026-05-05 22:59 | 34.53216 | -116.33196 | 21951 ft | 348 kts | 227° |
| 2026-05-05 22:59 | 34.51545 | -116.35309 | 21948 ft | 348 kts | 227° |
| 2026-05-05 22:59 | 34.49873 | -116.37421 | 21946 ft | 348 kts | 227° |
| 2026-05-05 22:59 | 34.48198 | -116.39537 | 21949 ft | 348 kts | 228° |
| 2026-05-05 23:00 | 34.44851 | -116.43760 | 21962 ft | 348 kts | 227° |
| 2026-05-05 23:00 | 34.43176 | -116.45870 | 21969 ft | 347 kts | 227° |
| 2026-05-05 23:00 | 34.41599 | -116.48069 | 21944 ft | 346 kts | 237° |
| 2026-05-05 23:01 | 34.40454 | -116.50606 | 21964 ft | 344 kts | 246° |
| 2026-05-05 23:01 | 34.39397 | -116.53202 | 21960 ft | 344 kts | 246° |
| 2026-05-05 23:01 | 34.38340 | -116.55803 | 21969 ft | 345 kts | 246° |
| 2026-05-05 23:01 | 34.37282 | -116.58398 | 21973 ft | 345 kts | 246° |
| 2026-05-05 23:02 | 34.36221 | -116.60994 | 21974 ft | 345 kts | 246° |
| 2026-05-05 23:02 | 34.35155 | -116.63591 | 21976 ft | 345 kts | 246° |
| 2026-05-05 23:02 | 34.34086 | -116.66191 | 21975 ft | 345 kts | 245° |
| 2026-05-05 23:02 | 34.33018 | -116.68792 | 21973 ft | 345 kts | 245° |
| 2026-05-05 23:03 | 34.31971 | -116.71397 | 21966 ft | 345 kts | 246° |
| 2026-05-05 23:03 | 34.30926 | -116.74009 | 21965 ft | 346 kts | 246° |
| 2026-05-05 23:03 | 34.29882 | -116.76616 | 21970 ft | 346 kts | 246° |
| 2026-05-05 23:03 | 34.28835 | -116.79225 | 21970 ft | 346 kts | 246° |
| 2026-05-05 23:04 | 34.27784 | -116.81837 | 21781 ft | 346 kts | 246° |
| 2026-05-05 23:04 | 34.26732 | -116.84448 | 21418 ft | 346 kts | 246° |
| 2026-05-05 23:04 | 34.25688 | -116.87032 | 21302 ft | 338 kts | 246° |
| 2026-05-05 23:04 | 34.24661 | -116.89570 | 21058 ft | 336 kts | 246° |
| 2026-05-05 23:05 | 34.23639 | -116.92100 | 20747 ft | 337 kts | 246° |
| 2026-05-05 23:05 | 34.22612 | -116.94639 | 20393 ft | 338 kts | 246° |
| 2026-05-05 23:05 | 34.21583 | -116.97186 | 20027 ft | 338 kts | 246° |
| 2026-05-05 23:05 | 34.20689 | -116.99803 | 19658 ft | 338 kts | 253° |
| 2026-05-05 23:06 | 34.19957 | -117.02497 | 19275 ft | 338 kts | 254° |
| 2026-05-05 23:06 | 34.19238 | -117.05191 | 18907 ft | 338 kts | 254° |
| 2026-05-05 23:06 | 34.18519 | -117.07880 | 18562 ft | 337 kts | 254° |
| 2026-05-05 23:06 | 34.17800 | -117.10558 | 18221 ft | 336 kts | 254° |
| 2026-05-05 23:07 | 34.17080 | -117.13232 | 17846 ft | 335 kts | 254° |
| 2026-05-05 23:07 | 34.16359 | -117.15901 | 17482 ft | 334 kts | 254° |
| 2026-05-05 23:07 | 34.15634 | -117.18559 | 17131 ft | 334 kts | 253° |
| 2026-05-05 23:07 | 34.14907 | -117.21211 | 16778 ft | 333 kts | 253° |
| 2026-05-05 23:08 | 34.14178 | -117.23864 | 16416 ft | 333 kts | 253° |
| 2026-05-05 23:08 | 34.13451 | -117.26506 | 16055 ft | 333 kts | 253° |
| 2026-05-05 23:08 | 34.12724 | -117.29144 | 15695 ft | 332 kts | 253° |
| 2026-05-05 23:08 | 34.11998 | -117.31779 | 15337 ft | 332 kts | 253° |
| 2026-05-05 23:09 | 34.11271 | -117.34412 | 14973 ft | 331 kts | 253° |
| 2026-05-05 23:09 | 34.10546 | -117.37036 | 14612 ft | 330 kts | 253° |
| 2026-05-05 23:09 | 34.09853 | -117.39671 | 14253 ft | 329 kts | 255° |
| 2026-05-05 23:09 | 34.09200 | -117.42309 | 13894 ft | 329 kts | 255° |
| 2026-05-05 23:10 | 34.08548 | -117.44939 | 13534 ft | 327 kts | 255° |
| 2026-05-05 23:10 | 34.07906 | -117.47513 | 13174 ft | 316 kts | 255° |
| 2026-05-05 23:10 | 34.07281 | -117.50004 | 12836 ft | 307 kts | 255° |
| 2026-05-05 23:10 | 34.06667 | -117.52430 | 12511 ft | 299 kts | 255° |
| 2026-05-05 23:11 | 34.06064 | -117.54794 | 12195 ft | 292 kts | 255° |
| 2026-05-05 23:11 | 34.05471 | -117.57117 | 11886 ft | 291 kts | 255° |
| 2026-05-05 23:11 | 34.04876 | -117.59454 | 11569 ft | 292 kts | 255° |
| 2026-05-05 23:11 | 34.04278 | -117.61796 | 11249 ft | 293 kts | 255° |
| 2026-05-05 23:12 | 34.03678 | -117.64145 | 10926 ft | 294 kts | 255° |
| 2026-05-05 23:12 | 34.03076 | -117.66499 | 10608 ft | 294 kts | 255° |
| 2026-05-05 23:12 | 34.02474 | -117.68848 | 10293 ft | 294 kts | 255° |
| 2026-05-05 23:12 | 34.02040 | -117.71240 | 9973 ft | 292 kts | 264° |
| 2026-05-05 23:13 | 34.01803 | -117.73664 | 9655 ft | 292 kts | 265° |
| 2026-05-05 23:13 | 34.01578 | -117.76084 | 9342 ft | 291 kts | 265° |
| 2026-05-05 23:13 | 34.01331 | -117.78500 | 9020 ft | 289 kts | 263° |
| 2026-05-05 23:13 | 34.01063 | -117.80885 | 8695 ft | 285 kts | 265° |
| 2026-05-05 23:14 | 34.00849 | -117.83230 | 8362 ft | 279 kts | 265° |
| 2026-05-05 23:14 | 34.00646 | -117.85511 | 8005 ft | 268 kts | 265° |
| 2026-05-05 23:14 | 34.00439 | -117.87694 | 7624 ft | 259 kts | 265° |
| 2026-05-05 23:14 | 34.00234 | -117.89810 | 7223 ft | 251 kts | 265° |
| 2026-05-05 23:15 | 34.00034 | -117.91873 | 6806 ft | 246 kts | 265° |
| 2026-05-05 23:15 | 33.99837 | -117.93888 | 6394 ft | 240 kts | 265° |
| 2026-05-05 23:15 | 33.99646 | -117.95840 | 6110 ft | 232 kts | 264° |
| 2026-05-05 23:15 | 33.99463 | -117.97757 | 5862 ft | 231 kts | 265° |
| 2026-05-05 23:16 | 33.99276 | -117.99674 | 5624 ft | 230 kts | 264° |
| 2026-05-05 23:16 | 33.99089 | -118.01557 | 5478 ft | 224 kts | 264° |
| 2026-05-05 23:16 | 33.98909 | -118.03382 | 5346 ft | 219 kts | 265° |
| 2026-05-05 23:16 | 33.98729 | -118.05212 | 5219 ft | 217 kts | 264° |
| 2026-05-05 23:17 | 33.98552 | -118.07005 | 5095 ft | 214 kts | 264° |
| 2026-05-05 23:17 | 33.98375 | -118.08778 | 4974 ft | 212 kts | 264° |
| 2026-05-05 23:17 | 33.98202 | -118.10534 | 4848 ft | 211 kts | 264° |
| 2026-05-05 23:17 | 33.98025 | -118.12296 | 4613 ft | 213 kts | 263° |
| 2026-05-05 23:18 | 33.97848 | -118.14078 | 4327 ft | 216 kts | 263° |
| 2026-05-05 23:18 | 33.97667 | -118.15879 | 4040 ft | 218 kts | 263° |
| 2026-05-05 23:18 | 33.97486 | -118.17699 | 3752 ft | 219 kts | 263° |
| 2026-05-05 23:18 | 33.97302 | -118.19498 | 3440 ft | 215 kts | 263° |
| 2026-05-05 23:19 | 33.97125 | -118.21260 | 3145 ft | 209 kts | 263° |
| 2026-05-05 23:19 | 33.96954 | -118.22968 | 2867 ft | 203 kts | 263° |
| 2026-05-05 23:19 | 33.96786 | -118.24629 | 2593 ft | 195 kts | 263° |
| 2026-05-05 23:19 | 33.96627 | -118.26215 | 2334 ft | 190 kts | 263° |
| 2026-05-05 23:20 | 33.96471 | -118.27786 | 2146 ft | 184 kts | 262° |
| 2026-05-05 23:20 | 33.96320 | -118.29291 | 1918 ft | 177 kts | 262° |
| 2026-05-05 23:20 | 33.96176 | -118.30715 | 1681 ft | 168 kts | 262° |
| 2026-05-05 23:20 | 33.96039 | -118.32078 | 1432 ft | 161 kts | 262° |
| 2026-05-05 23:21 | 33.95900 | -118.33384 | 1263 ft | 152 kts | 261° |
| 2026-05-05 23:21 | 33.95768 | -118.34658 | 1059 ft | 155 kts | 263° |
| 2026-05-05 23:21 | 33.95648 | -118.35925 | 905 ft | 153 kts | 262° |
| 2026-05-05 23:21 | 33.95521 | -118.37147 | 801 ft | 145 kts | 262° |
| 2026-05-05 23:22 | 33.95402 | -118.38337 | 578 ft | 141 kts | 262° |
| 2026-05-05 23:22 | 33.95283 | -118.39501 | 308 ft | 139 kts | 262° |
| 2026-05-05 23:22 | 33.95166 | -118.40639 | 140 ft | 129 kts | 262° |
| 2026-05-05 23:22 | 33.95069 | -118.41569 | 125 ft | 70 kts | 262° |
| 2026-05-05 23:23 | 33.95032 | -118.41938 | 123 ft | 33 kts | 261° |
| 2026-05-05 23:23 | 33.94962 | -118.42157 | 121 ft | 23 kts | 236° |
| 2026-05-05 23:23 | 33.94864 | -118.42280 | 120 ft | 17 kts | 204° |
| 2026-05-05 23:23 | 33.94735 | -118.42274 | 119 ft | 18 kts | 173° |
| 2026-05-05 23:24 | 33.94692 | -118.42158 | 120 ft | 20 kts | 81° |
| 2026-05-05 23:24 | 33.94713 | -118.41959 | 122 ft | 26 kts | 84° |
| 2026-05-05 23:24 | 33.94736 | -118.41718 | 123 ft | 30 kts | 83° |
| 2026-05-05 23:24 | 33.94760 | -118.41493 | 125 ft | 21 kts | 83° |
| 2026-05-05 23:25 | 33.94791 | -118.41325 | 125 ft | 19 kts | 81° |
| 2026-05-05 23:25 | 33.94808 | -118.41164 | 125 ft | 19 kts | 83° |
| 2026-05-05 23:25 | 33.94826 | -118.40997 | 126 ft | 20 kts | 83° |
| 2026-05-05 23:25 | 33.94844 | -118.40818 | 125 ft | 22 kts | 83° |
| 2026-05-05 23:26 | 33.94865 | -118.40618 | 124 ft | 25 kts | 81° |
| 2026-05-05 23:26 | 33.94886 | -118.40408 | 123 ft | 21 kts | 83° |
| 2026-05-05 23:26 | 33.94865 | -118.40302 | 122 ft | 12 kts | 155° |
| 2026-05-05 23:26 | 33.94829 | -118.40230 | 122 ft | 8 kts | 92° |
| 2026-05-05 23:27 | 33.94797 | -118.40188 | 122 ft | 4 kts | 146° |
| 2026-05-05 23:27 | 33.94787 | -118.40179 | 121 ft | 0 kts | 143° |